createdAt,value
2019-05-30T00:00:53.909Z,101750.84
2019-05-30T00:05:58.059Z,101744.70
2019-05-30T00:11:01.182Z,101734.59
2019-05-30T00:16:05.563Z,101728.89
2019-05-30T00:21:08.580Z,101731.14
2019-05-30T00:26:11.315Z,101721.00
2019-05-30T00:31:14.049Z,101719.67
2019-05-30T00:36:16.827Z,101716.66
2019-05-30T00:41:19.656Z,101712.81
2019-05-30T00:46:24.136Z,101705.16
2019-05-30T00:51:27.003Z,101707.24
2019-05-30T00:56:29.788Z,101704.73
2019-05-30T01:01:32.526Z,101700.40
2019-05-30T01:06:35.265Z,101698.48
2019-05-30T01:11:38.032Z,101697.73
2019-05-30T01:16:42.701Z,101689.34
2019-05-30T01:21:45.606Z,101683.26
2019-05-30T01:26:48.506Z,101677.10
2019-05-30T01:31:51.241Z,101681.31
2019-05-30T01:36:53.966Z,101680.39
2019-05-30T01:41:57.738Z,101678.91
2019-05-30T01:47:00.544Z,101681.39
2019-05-30T01:52:04.469Z,101674.86
2019-05-30T01:57:07.332Z,101667.94
2019-05-30T02:02:10.063Z,101671.02
2019-05-30T02:07:12.808Z,101665.36
2019-05-30T02:12:15.583Z,101660.73
2019-05-30T02:17:18.328Z,101662.91
2019-05-30T02:22:21.059Z,101661.75
2019-05-30T02:27:24.142Z,101654.47
2019-05-30T02:32:26.974Z,101658.54
2019-05-30T02:37:29.704Z,101654.20
2019-05-30T02:42:32.429Z,101655.20
2019-05-30T02:47:35.176Z,101659.56
2019-05-30T02:52:37.922Z,101658.75
2019-05-30T02:57:40.693Z,101662.86
2019-05-30T03:02:43.493Z,101655.62
2019-05-30T03:07:46.232Z,101653.30
2019-05-30T03:12:49.010Z,101667.63
2019-05-30T03:17:51.785Z,101658.25
2019-05-30T03:22:54.528Z,101659.98
2019-05-30T03:27:57.262Z,101663.66
2019-05-30T03:33:07.573Z,101660.01
2019-05-30T03:38:05.801Z,101653.87
2019-05-30T03:43:11.256Z,101660.44
2019-05-30T03:48:19.275Z,101659.34
2019-05-30T03:53:22.525Z,101662.66
2019-05-30T03:58:43.213Z,101658.03
2019-05-30T04:04:08.994Z,101650.61
2019-05-30T04:09:22.422Z,101650.37
2019-05-30T04:14:27.503Z,101651.30
2019-05-30T04:19:30.226Z,101655.61
2019-05-30T04:24:32.990Z,101654.23
2019-05-30T04:29:35.721Z,101658.74
2019-05-30T04:34:38.444Z,101649.97
2019-05-30T04:39:41.182Z,101659.41
2019-05-30T04:44:43.917Z,101657.36
2019-05-30T04:49:46.674Z,101657.61
2019-05-30T04:54:49.406Z,101661.53
2019-05-30T04:59:52.144Z,101659.52
2019-05-30T05:04:54.890Z,101668.81
2019-05-30T05:09:57.628Z,101665.45
2019-05-30T05:15:00.386Z,101669.16
2019-05-30T05:20:03.734Z,101671.03
2019-05-30T05:25:06.791Z,101673.58
2019-05-30T05:30:10.182Z,101675.53
2019-05-30T05:35:14.664Z,101677.44
2019-05-30T05:40:18.101Z,101678.20
2019-05-30T05:45:22.663Z,101663.87
2019-05-30T05:50:25.889Z,101664.82
2019-05-30T05:55:29.163Z,101661.17
2019-05-30T06:00:32.283Z,101664.03
2019-05-30T06:05:35.549Z,101672.62
2019-05-30T06:10:38.537Z,101673.70
2019-05-30T06:15:41.486Z,101680.52
2019-05-30T06:20:44.430Z,101684.73
2019-05-30T06:25:47.395Z,101681.77
2019-05-30T06:30:50.346Z,101680.31
2019-05-30T06:35:53.315Z,101621.88
2019-05-30T06:40:56.287Z,101682.62
2019-05-30T06:45:59.976Z,101680.66
2019-05-30T06:51:03.036Z,101680.38
2019-05-30T06:56:05.959Z,101682.72
2019-05-30T07:01:08.904Z,101689.55
2019-05-30T07:06:12.516Z,101682.70
2019-05-30T07:11:15.522Z,101692.69
2019-05-30T07:16:18.251Z,101689.94
2019-05-30T07:21:21.010Z,101694.48
2019-05-30T07:26:23.889Z,101694.61
2019-05-30T07:31:27.985Z,101694.25
2019-05-30T07:36:30.784Z,101698.48
2019-05-30T07:41:34.552Z,101702.00
2019-05-30T07:46:37.592Z,101703.55
2019-05-30T07:51:40.312Z,101703.89
2019-05-30T07:56:43.041Z,101703.89
2019-05-30T08:01:45.783Z,101712.64
2019-05-30T08:06:48.507Z,101707.59
2019-05-30T08:11:51.225Z,101715.63
2019-05-30T08:16:53.950Z,101704.77
2019-05-30T08:21:56.677Z,101692.14
2019-05-30T08:26:59.420Z,101704.38
2019-05-30T08:32:02.222Z,101698.89
2019-05-30T08:37:04.975Z,101717.19
2019-05-30T08:42:07.714Z,101710.30
2019-05-30T08:47:10.469Z,101719.02
2019-05-30T08:52:13.217Z,101728.97
2019-05-30T08:57:16.223Z,101726.45
2019-05-30T09:02:18.951Z,101723.95
2019-05-30T09:07:21.689Z,101718.87
2019-05-30T09:12:25.262Z,101724.18
2019-05-30T09:17:29.063Z,101709.84
2019-05-30T09:22:32.867Z,101714.14
2019-05-30T09:27:35.958Z,101710.47
2019-05-30T09:32:41.165Z,101700.41
2019-05-30T09:37:45.765Z,101707.61
2019-05-30T09:42:50.377Z,101708.92
2019-05-30T09:47:55.615Z,101706.56
2019-05-30T09:52:58.348Z,101705.09
2019-05-30T09:58:01.070Z,101708.80
2019-05-30T10:03:05.437Z,101718.02
2019-05-30T10:08:08.233Z,101707.67
2019-05-30T10:13:10.987Z,101715.63
2019-05-30T10:18:13.715Z,101720.73
2019-05-30T10:23:16.462Z,101721.45
2019-05-30T10:28:19.262Z,101715.51
2019-05-30T10:33:21.992Z,101699.56
2019-05-30T10:38:26.132Z,101706.34
2019-05-30T10:43:28.919Z,101695.28
2019-05-30T10:48:31.661Z,101701.71
2019-05-30T10:53:37.456Z,101702.81
2019-05-30T10:58:39.128Z,101698.87
2019-05-30T11:03:41.927Z,101706.67
2019-05-30T11:08:47.919Z,101707.58
2019-05-30T11:13:53.191Z,101706.09
2019-05-30T11:18:56.240Z,101711.27
2019-05-30T11:23:58.979Z,101715.67
2019-05-30T11:29:01.755Z,101713.88
2019-05-30T11:34:04.511Z,101709.69
2019-05-30T11:39:07.253Z,101722.33
2019-05-30T11:44:09.988Z,101736.52
2019-05-30T11:49:12.777Z,101745.28
2019-05-30T11:54:15.512Z,101746.45
2019-05-30T11:59:18.238Z,101739.83
2019-05-30T12:04:21.147Z,101746.92
2019-05-30T12:09:24.538Z,101748.33
2019-05-30T12:14:27.233Z,101750.64
2019-05-30T12:19:29.960Z,101756.45
2019-05-30T12:24:32.702Z,101755.11
2019-05-30T12:29:35.422Z,101745.98
2019-05-30T12:34:38.154Z,101750.28
2019-05-30T12:39:40.886Z,101761.29
2019-05-30T12:44:43.623Z,101770.16
2019-05-30T12:49:46.358Z,101766.34
2019-05-30T12:54:49.093Z,101778.04
2019-05-30T12:59:51.837Z,101773.01
2019-05-30T13:04:54.787Z,101777.38
2019-05-30T13:09:57.554Z,101775.58
2019-05-30T13:15:14.010Z,101785.00
2019-05-30T13:20:17.333Z,101777.88
2019-05-30T13:30:24.845Z,101784.05
2019-05-30T13:35:27.677Z,101766.26
2019-05-30T13:40:30.692Z,101776.88
2019-05-30T13:45:33.640Z,101778.05
2019-05-30T13:50:36.368Z,101771.49
2019-05-30T13:55:39.145Z,101767.08
2019-05-30T14:00:41.865Z,101768.88
2019-05-30T14:05:44.571Z,101776.00
2019-05-30T14:10:47.318Z,101760.70
2019-05-30T14:15:50.125Z,101764.12
2019-05-30T14:20:52.837Z,101759.69
2019-05-30T14:25:55.547Z,101759.14
2019-05-30T14:30:58.314Z,101765.43
2019-05-30T14:36:04.570Z,101769.27
2019-05-30T14:41:06.881Z,101774.25
2019-05-30T14:46:10.897Z,101778.59
2019-05-30T14:51:13.609Z,101768.34
2019-05-30T14:56:17.561Z,101771.05
2019-05-30T15:01:20.466Z,101777.69
2019-05-30T15:06:23.217Z,101784.96
2019-05-30T15:11:25.984Z,101776.96
2019-05-30T15:16:28.714Z,101779.46
2019-05-30T15:21:31.465Z,101790.97
2019-05-30T15:26:34.184Z,101794.70
2019-05-30T15:31:36.906Z,101796.13
2019-05-30T15:36:39.640Z,101787.80
2019-05-30T15:41:42.368Z,101792.63
2019-05-30T15:46:45.084Z,101794.26
2019-05-30T15:51:47.824Z,101794.12
2019-05-30T15:56:50.554Z,101787.75
2019-05-30T16:01:53.296Z,101785.67
2019-05-30T16:06:56.022Z,101788.45
2019-05-30T16:11:58.734Z,101787.09
2019-05-30T16:17:01.463Z,101786.39
2019-05-30T16:22:04.184Z,101774.73
2019-05-30T16:27:06.900Z,101764.08
2019-05-30T16:32:09.626Z,101761.53
2019-05-30T16:37:12.448Z,101761.22
2019-05-30T16:42:16.291Z,101764.73
2019-05-30T16:47:19.081Z,101769.33
2019-05-30T16:52:23.055Z,101772.92
2019-05-30T16:57:26.730Z,101763.30
2019-05-30T17:02:29.536Z,101755.13
2019-05-30T17:07:32.259Z,101761.27
2019-05-30T17:12:35.284Z,101770.81
2019-05-30T17:17:38.000Z,101784.09
2019-05-30T17:22:40.715Z,101767.04
2019-05-30T17:27:43.440Z,101771.20
2019-05-30T17:32:46.172Z,101769.08
2019-05-30T17:37:49.293Z,101777.39
2019-05-30T17:42:52.105Z,101772.70
2019-05-30T17:48:02.649Z,101776.70
2019-05-30T17:52:59.827Z,101771.01
2019-05-30T17:58:02.654Z,101772.54
2019-05-30T18:03:05.372Z,101775.01
2019-05-30T18:08:08.091Z,101779.41
2019-05-30T18:13:10.815Z,101792.24
2019-05-30T18:18:13.545Z,101794.48
2019-05-30T18:23:16.335Z,101798.55
2019-05-30T18:28:19.137Z,101697.73
2019-05-30T18:33:22.174Z,101796.26
2019-05-30T18:38:26.919Z,101799.98
2019-05-30T18:43:30.935Z,101800.20
2019-05-30T18:48:33.771Z,101797.22
2019-05-30T18:53:36.792Z,101796.16
2019-05-30T18:58:39.575Z,101797.22
2019-05-30T19:03:42.410Z,101800.87
2019-05-30T19:08:45.105Z,101796.21
2019-05-30T19:13:47.870Z,101780.14
2019-05-30T19:18:50.574Z,101784.00
2019-05-30T19:23:53.294Z,101798.59
2019-05-30T19:28:56.029Z,101801.49
2019-05-30T19:33:58.752Z,101807.00
2019-05-30T19:39:01.498Z,101809.78
2019-05-30T19:44:04.225Z,101816.66
2019-05-30T19:49:06.966Z,101814.17
2019-05-30T19:54:09.693Z,101821.97
2019-05-30T19:59:12.406Z,101825.16
2019-05-30T20:04:15.117Z,101834.25
2019-05-30T20:09:17.869Z,101835.45
2019-05-30T20:14:20.591Z,101831.56
2019-05-30T20:19:23.322Z,101830.47
2019-05-30T20:24:26.032Z,101824.08
2019-05-30T20:29:28.798Z,101838.44
2019-05-30T20:34:32.922Z,101838.77
2019-05-30T20:39:36.587Z,101841.55
2019-05-30T20:44:39.522Z,101838.61
2019-05-30T20:49:43.385Z,101848.81
2019-05-30T20:54:47.638Z,101843.91
2019-05-30T20:59:50.415Z,101841.01
2019-05-30T21:04:53.206Z,101844.29
2019-05-30T21:09:56.355Z,101838.53
2019-05-30T21:15:01.675Z,101836.79
2019-05-30T21:20:04.673Z,101845.33
2019-05-30T21:25:07.785Z,101839.84
2019-05-30T21:30:11.108Z,101838.44
2019-05-30T21:35:14.241Z,101840.23
2019-05-30T21:40:17.156Z,101837.20
2019-05-30T21:45:19.881Z,101831.34
2019-05-30T21:50:22.637Z,101834.29
2019-05-30T21:55:25.378Z,101834.63
2019-05-30T22:01:30.827Z,101824.63
2019-05-30T22:06:33.849Z,101839.06
2019-05-30T22:11:36.629Z,101825.96
2019-05-30T22:16:39.327Z,101827.13
2019-05-30T22:21:42.064Z,101829.40
2019-05-30T22:26:44.742Z,101830.73
2019-05-30T22:31:48.509Z,101831.56
2019-05-30T22:36:51.353Z,101832.97
2019-05-30T22:41:54.060Z,101827.58
2019-05-30T22:46:57.027Z,101833.30
2019-05-30T22:51:59.789Z,101828.98
2019-05-30T22:57:02.576Z,101832.36
2019-05-30T23:02:05.346Z,101832.36
2019-05-30T23:07:08.068Z,101826.97
2019-05-30T23:12:10.799Z,101816.66
2019-05-30T23:17:13.526Z,101781.82
2019-05-30T23:22:16.244Z,101821.11
2019-05-30T23:27:18.960Z,101825.08
2019-05-30T23:32:21.712Z,101816.66
2019-05-30T23:37:24.436Z,101810.20
2019-05-30T23:42:27.172Z,101817.75
2019-05-30T23:47:29.996Z,101821.28
2019-05-30T23:52:32.839Z,101820.95
2019-05-30T23:57:35.558Z,101814.11
